createdAt,value
2023-04-18T00:00:53.873Z,96175.22
2023-04-18T00:01:55.771Z,96174.28
2023-04-18T00:02:59.265Z,96167.88
2023-04-18T00:04:04.989Z,96170.69
2023-04-18T00:05:07.811Z,96165.06
2023-04-18T00:06:10.394Z,96167.91
2023-04-18T00:07:15.355Z,96163.72
2023-04-18T00:08:16.900Z,96168.72
2023-04-18T00:09:18.583Z,96171.75
2023-04-18T00:10:20.234Z,96160.47
2023-04-18T00:11:21.847Z,96166.19
2023-04-18T00:12:23.455Z,96167.81
2023-04-18T00:13:25.176Z,96175.94
2023-04-18T00:14:28.979Z,96176.28
2023-04-18T00:15:31.273Z,96174.03
2023-04-18T00:16:33.540Z,96173.66
2023-04-18T00:17:38.375Z,96177.13
2023-04-18T00:18:40.366Z,96172.97
2023-04-18T00:19:42.238Z,96172.13
2023-04-18T00:20:44.007Z,96170.97
2023-04-18T00:21:46.080Z,96173.75
2023-04-18T00:22:47.799Z,96176.06
2023-04-18T00:23:49.438Z,96173.38
2023-04-18T00:24:52.241Z,96176.13
2023-04-18T00:25:53.792Z,96173.09
2023-04-18T00:26:55.502Z,96182.00
2023-04-18T00:27:57.021Z,96178.91
2023-04-18T00:28:58.627Z,96181.16
2023-04-18T00:30:00.219Z,96184.28
2023-04-18T00:31:01.867Z,96177.34
2023-04-18T00:32:03.552Z,96179.59
2023-04-18T00:33:05.250Z,96185.53
2023-04-18T00:34:06.847Z,96179.34
2023-04-18T00:35:08.728Z,96179.63
2023-04-18T00:36:10.458Z,96181.84
2023-04-18T00:37:12.870Z,96179.63
2023-04-18T00:38:14.378Z,96191.19
2023-04-18T00:39:15.945Z,96189.31
2023-04-18T00:40:17.584Z,96182.75
2023-04-18T00:41:21.856Z,96185.06
2023-04-18T00:42:25.475Z,96180.03
2023-04-18T00:43:27.117Z,96182.38
2023-04-18T00:44:28.701Z,96180.13
2023-04-18T00:45:30.225Z,96175.56
2023-04-18T00:46:31.804Z,96172.56
2023-04-18T00:47:33.414Z,96177.28
2023-04-18T00:48:35.165Z,96172.81
2023-04-18T00:49:36.792Z,96172.19
2023-04-18T00:50:38.604Z,96173.75
2023-04-18T00:51:40.886Z,96181.44
2023-04-18T00:52:44.726Z,96187.31
2023-04-18T00:53:46.795Z,96188.63
2023-04-18T00:54:48.441Z,96178.75
2023-04-18T00:55:50.087Z,96194.91
2023-04-18T00:56:51.725Z,96183.94
2023-04-18T00:57:53.513Z,96185.72
2023-04-18T00:58:55.248Z,96180.00
2023-04-18T00:59:57.005Z,96188.69
2023-04-18T01:00:58.679Z,96187.84
2023-04-18T01:02:00.599Z,96180.31
2023-04-18T01:03:02.417Z,96175.63
2023-04-18T01:04:04.485Z,96185.84
2023-04-18T01:05:08.015Z,96180.06
2023-04-18T01:06:10.006Z,96183.53
2023-04-18T01:07:11.877Z,96175.13
2023-04-18T01:08:14.115Z,96172.69
2023-04-18T01:09:15.984Z,96180.41
2023-04-18T01:10:18.297Z,96171.13
2023-04-18T01:11:20.278Z,96171.13
2023-04-18T01:12:21.797Z,96174.25
2023-04-18T01:13:23.389Z,96171.59
2023-04-18T01:14:24.951Z,96177.19
2023-04-18T01:15:26.550Z,96175.63
2023-04-18T01:16:29.891Z,96177.88
2023-04-18T01:17:31.724Z,96164.03
2023-04-18T01:18:35.108Z,96170.50
2023-04-18T01:19:40.529Z,96170.75
2023-04-18T01:20:46.618Z,96168.53
2023-04-18T01:21:48.207Z,96171.44
2023-04-18T01:22:50.739Z,96166.75
2023-04-18T01:23:54.002Z,96165.41
2023-04-18T01:24:55.792Z,96151.78
2023-04-18T01:25:57.721Z,96159.78
2023-04-18T01:26:59.839Z,96153.16
2023-04-18T01:28:02.542Z,96153.47
2023-04-18T01:29:04.661Z,96157.53
2023-04-18T01:30:06.941Z,96156.03
2023-04-18T01:31:08.531Z,96157.72
2023-04-18T01:32:10.138Z,96155.56
2023-04-18T01:33:11.813Z,96157.03
2023-04-18T01:34:14.698Z,96163.19
2023-04-18T01:35:17.541Z,96167.41
2023-04-18T01:36:19.080Z,96166.03
2023-04-18T01:37:20.656Z,96166.69
2023-04-18T01:38:22.245Z,96162.38
2023-04-18T01:39:23.891Z,96161.03
2023-04-18T01:40:25.970Z,96158.09
2023-04-18T01:41:29.752Z,96162.78
2023-04-18T01:42:31.377Z,96161.91
2023-04-18T01:43:32.907Z,96161.22
2023-04-18T01:44:34.524Z,96164.34
2023-04-18T01:45:36.049Z,96158.53
2023-04-18T01:46:37.933Z,96160.94
2023-04-18T01:47:39.743Z,96161.88
2023-04-18T01:48:41.310Z,96167.72
2023-04-18T01:49:46.762Z,96171.31
2023-04-18T01:50:48.308Z,96168.72
2023-04-18T01:51:49.839Z,96174.50
2023-04-18T01:52:51.390Z,96164.69
2023-04-18T01:53:52.929Z,96173.25
2023-04-18T01:54:54.538Z,96169.44
2023-04-18T01:55:57.663Z,96168.06
2023-04-18T01:56:59.227Z,96164.00
2023-04-18T01:58:00.759Z,96181.63
2023-04-18T01:59:02.335Z,96176.34
2023-04-18T02:00:06.268Z,96173.66
2023-04-18T02:01:08.103Z,96174.56
2023-04-18T02:02:11.355Z,96176.78
2023-04-18T02:03:13.118Z,96172.28
2023-04-18T02:04:15.141Z,96183.09
2023-04-18T02:05:16.878Z,96184.13
2023-04-18T02:06:18.433Z,96184.47
2023-04-18T02:07:19.948Z,96181.34
2023-04-18T02:08:21.656Z,96185.44
2023-04-18T02:09:23.216Z,96187.19
2023-04-18T02:10:25.004Z,96182.69
2023-04-18T02:11:26.571Z,96178.72
2023-04-18T02:12:28.119Z,96183.69
2023-04-18T02:13:29.672Z,96191.00
2023-04-18T02:14:33.410Z,96184.25
2023-04-18T02:15:35.541Z,96180.06
2023-04-18T02:16:37.226Z,96178.66
2023-04-18T02:17:38.979Z,96181.03
2023-04-18T02:18:43.112Z,96174.00
2023-04-18T02:19:44.647Z,96182.72
2023-04-18T02:20:46.202Z,96174.34
2023-04-18T02:21:47.777Z,96170.22
2023-04-18T02:22:49.304Z,96168.31
2023-04-18T02:23:51.081Z,96173.03
2023-04-18T02:24:52.676Z,96174.19
2023-04-18T02:25:54.601Z,96168.41
2023-04-18T02:26:56.149Z,96172.88
2023-04-18T02:27:58.291Z,96174.09
2023-04-18T02:28:59.870Z,96173.69
2023-04-18T02:30:01.411Z,96175.34
2023-04-18T02:31:02.943Z,96183.56
2023-04-18T02:32:04.724Z,96178.91
2023-04-18T02:33:06.534Z,96184.25
2023-04-18T02:34:08.148Z,96182.91
2023-04-18T02:35:11.529Z,96178.47
2023-04-18T02:36:13.602Z,96175.00
2023-04-18T02:37:15.109Z,96180.66
2023-04-18T02:38:16.648Z,96180.00
2023-04-18T02:39:18.284Z,96181.34
2023-04-18T02:40:20.044Z,96183.59
2023-04-18T02:41:21.603Z,96189.94
2023-04-18T02:42:23.142Z,96184.69
2023-04-18T02:43:24.751Z,96188.03
2023-04-18T02:44:26.372Z,96174.44
2023-04-18T02:45:28.004Z,96180.88
2023-04-18T02:46:29.709Z,96180.41
2023-04-18T02:47:37.505Z,96182.41
2023-04-18T02:48:45.458Z,96180.56
2023-04-18T02:49:46.968Z,96180.88
2023-04-18T02:50:48.562Z,96186.06
2023-04-18T02:51:50.255Z,96189.63
2023-04-18T02:52:51.774Z,96185.25
2023-04-18T02:53:55.106Z,96194.16
2023-04-18T02:54:56.717Z,96187.00
2023-04-18T02:55:58.837Z,96184.88
2023-04-18T02:57:01.354Z,96191.53
2023-04-18T02:58:03.045Z,96187.03
2023-04-18T02:59:04.578Z,96189.06
2023-04-18T03:00:07.900Z,96195.97
2023-04-18T03:01:09.492Z,96198.66
2023-04-18T03:02:11.089Z,96201.75
2023-04-18T03:03:13.028Z,96200.28
2023-04-18T03:04:14.786Z,96201.50
2023-04-18T03:05:16.574Z,96193.03
2023-04-18T03:06:18.090Z,96192.69
2023-04-18T03:07:19.689Z,96197.00
2023-04-18T03:08:21.190Z,96194.78
2023-04-18T03:09:22.750Z,96192.53
2023-04-18T03:10:24.288Z,96186.41
2023-04-18T03:11:25.974Z,96194.06
2023-04-18T03:12:27.524Z,96198.50
2023-04-18T03:13:29.030Z,96191.34
2023-04-18T03:14:30.624Z,96193.75
2023-04-18T03:15:32.389Z,96191.53
2023-04-18T03:16:34.055Z,96187.28
2023-04-18T03:17:36.436Z,96195.00
2023-04-18T03:18:37.972Z,96190.84
2023-04-18T03:19:39.618Z,96194.66
2023-04-18T03:20:41.216Z,96193.09
2023-04-18T03:21:42.750Z,96196.88
2023-04-18T03:22:44.277Z,96200.78
2023-04-18T03:23:45.886Z,96195.09
2023-04-18T03:24:47.384Z,96205.47
2023-04-18T03:25:49.056Z,96201.56
2023-04-18T03:26:50.733Z,96209.06
2023-04-18T03:27:52.310Z,96200.78
2023-04-18T03:28:53.970Z,96199.69
2023-04-18T03:29:55.533Z,96207.72
2023-04-18T03:30:57.065Z,96205.47
2023-04-18T03:31:58.661Z,96205.13
2023-04-18T03:33:02.832Z,96203.91
2023-04-18T03:34:04.632Z,96209.47
2023-04-18T03:35:06.224Z,96201.84
2023-04-18T03:36:08.393Z,96211.84
2023-04-18T03:37:10.192Z,96206.53
2023-04-18T03:38:12.402Z,96204.28
2023-04-18T03:39:13.922Z,96211.28
2023-04-18T03:40:15.644Z,96209.06
2023-04-18T03:41:17.183Z,96209.41
2023-04-18T03:42:18.774Z,96216.31
2023-04-18T03:43:21.114Z,96215.97
2023-04-18T03:44:22.678Z,96212.69
2023-04-18T03:45:24.225Z,96219.72
2023-04-18T03:46:26.049Z,96211.34
2023-04-18T03:47:28.305Z,96213.16
2023-04-18T03:48:29.985Z,96220.47
2023-04-18T03:49:31.543Z,96216.69
2023-04-18T03:50:33.424Z,96213.00
2023-04-18T03:51:49.893Z,96214.56
2023-04-18T03:52:52.607Z,96209.88
2023-04-18T03:53:54.336Z,96210.41
2023-04-18T03:54:55.996Z,96218.63
2023-04-18T03:55:58.003Z,96217.25
2023-04-18T03:56:59.697Z,96214.31
2023-04-18T03:58:01.317Z,96215.19
2023-04-18T03:59:02.856Z,96217.66
2023-04-18T04:00:05.906Z,96214.72
2023-04-18T04:01:07.830Z,96214.47
2023-04-18T04:02:09.661Z,96207.28
2023-04-18T04:03:11.564Z,96212.38
2023-04-18T04:04:15.292Z,96216.69
2023-04-18T04:05:17.349Z,96213.53
2023-04-18T04:06:18.945Z,96221.66
2023-04-18T04:07:20.767Z,96227.09
2023-04-18T04:08:22.277Z,96221.47
2023-04-18T04:09:23.822Z,96225.09
2023-04-18T04:10:25.612Z,96222.56
2023-04-18T04:11:27.343Z,96224.06
2023-04-18T04:12:28.940Z,96223.19
2023-04-18T04:13:30.555Z,96229.41
2023-04-18T04:14:32.461Z,96224.84
2023-04-18T04:15:34.036Z,96232.38
2023-04-18T04:16:35.724Z,96224.06
2023-04-18T04:17:37.262Z,96227.94
2023-04-18T04:18:38.813Z,96228.72
2023-04-18T04:19:40.401Z,96229.75
2023-04-18T04:20:41.982Z,96222.31
2023-04-18T04:21:43.706Z,96230.81
2023-04-18T04:22:45.216Z,96225.72
2023-04-18T04:23:47.974Z,96221.31
2023-04-18T04:24:49.518Z,96226.75
2023-04-18T04:25:54.873Z,96231.91
2023-04-18T04:26:57.195Z,96231.72
2023-04-18T04:28:01.526Z,96228.91
2023-04-18T04:29:03.671Z,96228.88
2023-04-18T04:30:06.744Z,96230.41
2023-04-18T04:31:10.163Z,96236.25
2023-04-18T04:32:12.985Z,96230.72
2023-04-18T04:33:14.715Z,96232.16
2023-04-18T04:34:16.949Z,96230.38
2023-04-18T04:35:18.825Z,96240.34
2023-04-18T04:36:23.021Z,96241.25
2023-04-18T04:37:24.666Z,96235.00
2023-04-18T04:38:27.442Z,96238.81
2023-04-18T04:39:29.248Z,96237.25
2023-04-18T04:40:30.794Z,96238.59
2023-04-18T04:41:32.348Z,96235.16
2023-04-18T04:42:33.864Z,96242.59
2023-04-18T04:43:35.681Z,96239.69
2023-04-18T04:44:37.467Z,96236.06
2023-04-18T04:45:41.517Z,96240.06
2023-04-18T04:46:44.888Z,96239.09
2023-04-18T04:47:46.498Z,96238.19
2023-04-18T04:48:48.077Z,96234.59
2023-04-18T04:49:49.575Z,96225.19
2023-04-18T04:50:53.807Z,96236.50
2023-04-18T04:51:55.383Z,96239.81
2023-04-18T04:52:56.904Z,96233.03
2023-04-18T04:53:58.488Z,96233.22
2023-04-18T04:55:00.056Z,96233.31
2023-04-18T04:56:01.931Z,96236.75
2023-04-18T04:57:04.355Z,96236.09
2023-04-18T04:58:05.899Z,96235.03
2023-04-18T04:59:07.583Z,96235.81
2023-04-18T05:00:09.873Z,96238.91
2023-04-18T05:01:12.471Z,96241.34
2023-04-18T05:02:14.065Z,96245.75
2023-04-18T05:03:16.047Z,96240.81
2023-04-18T05:04:18.343Z,96240.81
2023-04-18T05:05:20.252Z,96240.97
2023-04-18T05:06:22.777Z,96235.63
2023-04-18T05:07:24.414Z,96244.38
2023-04-18T05:08:26.232Z,96239.97
2023-04-18T05:09:27.840Z,96243.53
2023-04-18T05:10:30.377Z,96239.59
2023-04-18T05:11:31.877Z,96240.25
2023-04-18T05:12:33.460Z,96239.38
2023-04-18T05:13:35.100Z,96243.75
2023-04-18T05:14:36.601Z,96249.41
2023-04-18T05:15:39.211Z,96240.72
2023-04-18T05:16:40.816Z,96251.13
2023-04-18T05:17:43.110Z,96245.97
2023-04-18T05:18:44.737Z,96243.22
2023-04-18T05:19:46.425Z,96239.41
2023-04-18T05:20:48.017Z,96252.34
2023-04-18T05:21:49.705Z,96244.44
2023-04-18T05:22:51.308Z,96252.78
2023-04-18T05:23:53.131Z,96247.84
2023-04-18T05:24:54.681Z,96235.97
2023-04-18T05:25:56.389Z,96249.25
2023-04-18T05:26:58.003Z,96244.91
2023-04-18T05:28:04.796Z,96249.06
2023-04-18T05:29:06.321Z,96247.25
2023-04-18T05:30:08.423Z,96247.34
2023-04-18T05:31:10.021Z,96247.47
2023-04-18T05:32:12.083Z,96244.78
2023-04-18T05:33:13.691Z,96244.34
2023-04-18T05:34:15.529Z,96243.69
2023-04-18T05:35:17.564Z,96248.25
2023-04-18T05:36:19.454Z,96251.00
2023-04-18T05:37:22.263Z,96255.44
2023-04-18T05:38:23.963Z,96252.69
2023-04-18T05:39:25.717Z,96247.72
2023-04-18T05:40:27.543Z,96251.28
2023-04-18T05:41:29.103Z,96252.56
2023-04-18T05:42:30.733Z,96245.69
2023-04-18T05:43:32.327Z,96247.41
2023-04-18T05:44:33.886Z,96253.91
2023-04-18T05:45:35.433Z,96247.31
2023-04-18T05:46:37.027Z,96245.31
2023-04-18T05:47:38.601Z,96240.41
2023-04-18T05:48:40.143Z,96248.19
2023-04-18T05:49:41.913Z,96242.97
2023-04-18T05:50:43.476Z,96240.00
2023-04-18T05:51:45.962Z,96240.50
2023-04-18T05:52:47.658Z,96244.50
2023-04-18T05:53:49.222Z,96241.97
2023-04-18T05:54:50.906Z,96233.66
2023-04-18T05:55:52.625Z,96240.19
2023-04-18T05:56:55.100Z,96235.78
2023-04-18T05:57:56.703Z,96233.22
2023-04-18T05:58:58.222Z,96236.84
2023-04-18T05:59:59.750Z,96232.31
2023-04-18T06:01:01.746Z,96233.88
2023-04-18T06:02:03.379Z,96245.47
2023-04-18T06:03:05.528Z,96242.50
2023-04-18T06:04:08.726Z,96242.69
2023-04-18T06:05:10.784Z,96248.19
2023-04-18T06:06:12.948Z,96249.81
2023-04-18T06:07:14.648Z,96246.06
2023-04-18T06:08:16.521Z,96247.59
2023-04-18T06:09:18.054Z,96250.28
2023-04-18T06:10:19.603Z,96243.44
2023-04-18T06:11:21.649Z,96247.69
2023-04-18T06:12:23.166Z,96247.75
2023-04-18T06:13:24.828Z,96245.50
2023-04-18T06:14:26.424Z,96242.09
2023-04-18T06:15:28.428Z,96246.75
2023-04-18T06:16:30.063Z,96244.06
2023-04-18T06:17:32.029Z,96244.06
2023-04-18T06:18:33.995Z,96247.19
2023-04-18T06:19:35.728Z,96246.44
2023-04-18T06:20:37.367Z,96240.28
2023-04-18T06:21:41.983Z,96243.06
2023-04-18T06:22:43.720Z,96245.47
2023-04-18T06:23:45.277Z,96245.16
2023-04-18T06:24:46.770Z,96244.81
2023-04-18T06:25:48.364Z,96239.06
2023-04-18T06:26:49.995Z,96238.38
2023-04-18T06:27:51.580Z,96243.03
2023-04-18T06:28:54.214Z,96238.44
2023-04-18T06:29:55.809Z,96245.38
2023-04-18T06:30:57.362Z,96237.34
2023-04-18T06:31:59.567Z,96241.47
2023-04-18T06:33:01.372Z,96246.00
2023-04-18T06:34:03.301Z,96240.44
2023-04-18T06:35:05.247Z,96237.59
2023-04-18T06:36:07.369Z,96239.28
2023-04-18T06:37:08.939Z,96239.38
2023-04-18T06:38:13.589Z,96242.31
2023-04-18T06:39:15.287Z,96241.53
2023-04-18T06:40:17.338Z,96237.44
2023-04-18T06:41:18.848Z,96242.47
2023-04-18T06:42:22.551Z,96242.53
2023-04-18T06:43:24.417Z,96241.50
2023-04-18T06:44:26.047Z,96230.47
2023-04-18T06:45:27.755Z,96241.50
2023-04-18T06:46:29.572Z,96238.50
2023-04-18T06:47:31.445Z,96238.50
2023-04-18T06:48:33.066Z,96245.28
2023-04-18T06:49:34.740Z,96246.38
2023-04-18T06:50:36.287Z,96241.31
2023-04-18T06:51:37.892Z,96240.19
2023-04-18T06:52:44.235Z,96237.53
2023-04-18T06:53:46.072Z,96231.19
2023-04-18T06:54:47.625Z,96235.63
2023-04-18T06:55:49.372Z,96242.06
2023-04-18T06:56:51.065Z,96237.69
2023-04-18T06:57:53.015Z,96239.66
2023-04-18T06:58:54.560Z,96239.03
2023-04-18T06:59:56.125Z,96236.13
2023-04-18T07:00:57.690Z,96234.88
2023-04-18T07:01:59.270Z,96240.13
2023-04-18T07:03:02.797Z,96244.06
2023-04-18T07:04:05.459Z,96241.97
2023-04-18T07:05:07.998Z,96241.91
2023-04-18T07:06:11.157Z,96245.81
2023-04-18T07:07:12.730Z,96239.25
2023-04-18T07:08:14.259Z,96249.56
2023-04-18T07:09:15.817Z,96249.00
2023-04-18T07:10:17.355Z,96249.84
2023-04-18T07:11:18.987Z,96244.47
2023-04-18T07:12:21.104Z,96247.59
2023-04-18T07:13:22.673Z,96249.22
2023-04-18T07:14:24.977Z,96244.06
2023-04-18T07:15:26.582Z,96244.06
2023-04-18T07:16:28.211Z,96243.09
2023-04-18T07:17:29.832Z,96236.03
2023-04-18T07:18:38.137Z,96244.06
2023-04-18T07:19:41.295Z,96238.41
2023-04-18T07:20:42.943Z,96238.69
2023-04-18T07:21:46.017Z,96238.75
2023-04-18T07:22:48.876Z,96238.63
2023-04-18T07:23:50.444Z,96244.63
2023-04-18T07:24:52.022Z,96237.28
2023-04-18T07:25:53.717Z,96242.38
2023-04-18T07:26:55.437Z,96247.19
2023-04-18T07:27:57.042Z,96245.75
2023-04-18T07:28:58.582Z,96238.38
2023-04-18T07:30:00.094Z,96248.78
2023-04-18T07:31:03.203Z,96243.84
2023-04-18T07:32:06.213Z,96241.53
2023-04-18T07:33:09.610Z,96234.19
2023-04-18T07:34:11.585Z,96233.28
2023-04-18T07:35:13.336Z,96231.97
2023-04-18T07:36:14.960Z,96236.59
2023-04-18T07:37:18.327Z,96243.75
2023-04-18T07:38:20.228Z,96240.00
2023-04-18T07:39:21.752Z,96239.31
2023-04-18T07:40:23.317Z,96237.53
2023-04-18T07:41:24.907Z,96230.13
2023-04-18T07:42:26.810Z,96243.75
2023-04-18T07:43:28.406Z,96243.41
2023-04-18T07:44:29.938Z,96233.00
2023-04-18T07:45:31.584Z,96238.31
2023-04-18T07:46:34.013Z,96244.97
2023-04-18T07:47:35.741Z,96242.13
2023-04-18T07:48:37.468Z,96242.22
2023-04-18T07:49:39.054Z,96241.28
2023-04-18T07:50:40.597Z,96243.78
2023-04-18T07:51:42.120Z,96235.06
2023-04-18T07:52:47.666Z,96236.44
2023-04-18T07:53:49.180Z,96244.31
2023-04-18T07:54:50.746Z,96246.69
2023-04-18T07:55:52.305Z,96236.75
2023-04-18T07:56:53.872Z,96232.94
2023-04-18T07:57:55.422Z,96237.63
2023-04-18T07:58:56.949Z,96242.72
2023-04-18T07:59:58.511Z,96233.88
2023-04-18T08:01:00.137Z,96230.81
2023-04-18T08:02:01.778Z,96231.59
2023-04-18T08:03:03.640Z,96231.97
2023-04-18T08:04:06.014Z,96234.31
2023-04-18T08:05:08.518Z,96232.38
2023-04-18T08:06:10.200Z,96235.44
2023-04-18T08:07:11.737Z,96225.38
2023-04-18T08:08:13.441Z,96234.59
2023-04-18T08:09:15.250Z,96236.88
2023-04-18T08:10:17.074Z,96224.09
2023-04-18T08:11:18.622Z,96228.78
2023-04-18T08:12:20.192Z,96230.34
2023-04-18T08:13:21.774Z,96234.50
2023-04-18T08:14:23.432Z,96227.53
2023-04-18T08:15:25.089Z,96230.66
2023-04-18T08:16:27.554Z,96222.91
2023-04-18T08:17:29.337Z,96222.19
2023-04-18T08:18:30.905Z,96225.28
2023-04-18T08:19:32.433Z,96218.38
2023-04-18T08:20:37.157Z,96216.84
2023-04-18T08:21:39.339Z,96225.75
2023-04-18T08:22:53.856Z,96223.81
2023-04-18T08:24:02.880Z,96225.41
2023-04-18T08:25:05.760Z,96220.81
2023-04-18T08:26:07.531Z,96220.78
2023-04-18T08:27:09.170Z,96220.03
2023-04-18T08:28:11.061Z,96226.22
2023-04-18T08:29:13.065Z,96228.19
2023-04-18T08:30:15.156Z,96225.09
2023-04-18T08:31:17.313Z,96218.91
2023-04-18T08:32:18.908Z,96214.66
2023-04-18T08:33:22.274Z,96213.09
2023-04-18T08:34:24.179Z,96219.69
2023-04-18T08:35:25.847Z,96226.25
2023-04-18T08:36:28.060Z,96216.19
2023-04-18T08:37:30.261Z,96219.69
2023-04-18T08:38:31.947Z,96216.97
2023-04-18T08:39:33.492Z,96220.06
2023-04-18T08:40:35.054Z,96227.78
2023-04-18T08:41:41.981Z,96218.91
2023-04-18T08:42:47.110Z,96222.41
2023-04-18T08:43:49.108Z,96216.97
2023-04-18T08:44:51.446Z,96217.75
2023-04-18T08:45:58.791Z,96210.75
2023-04-18T08:47:01.563Z,96209.22
2023-04-18T08:48:03.743Z,96212.34
2023-04-18T08:49:06.240Z,96202.25
2023-04-18T08:50:09.605Z,96209.22
2023-04-18T08:51:11.357Z,96211.56
2023-04-18T08:52:14.534Z,96202.28
2023-04-18T08:53:17.811Z,96198.78
2023-04-18T08:54:20.758Z,96202.25
2023-04-18T08:55:25.238Z,96207.69
2023-04-18T08:56:27.290Z,96200.72
2023-04-18T08:57:30.861Z,96203.44
2023-04-18T08:58:33.904Z,96198.41
2023-04-18T08:59:35.995Z,96208.09
2023-04-18T09:00:37.593Z,96192.22
2023-04-18T09:01:52.922Z,96196.06
2023-04-18T09:02:56.939Z,96187.56
2023-04-18T09:03:58.972Z,96191.06
2023-04-18T09:05:00.632Z,96188.31
2023-04-18T09:06:14.437Z,96189.13
2023-04-18T09:07:17.082Z,96190.66
2023-04-18T09:08:26.414Z,96189.09
2023-04-18T09:09:28.077Z,96187.56
2023-04-18T09:10:34.193Z,96184.50
2023-04-18T09:11:35.744Z,96183.31
2023-04-18T09:12:52.197Z,96187.59
2023-04-18T09:13:56.076Z,96179.84
2023-04-18T09:15:10.905Z,96184.88
2023-04-18T09:16:13.401Z,96181.41
2023-04-18T09:17:37.813Z,96187.56
2023-04-18T09:18:39.404Z,96182.91
2023-04-18T09:19:49.015Z,96182.16
2023-04-18T09:20:50.607Z,96188.34
2023-04-18T09:22:00.854Z,96182.94
2023-04-18T09:23:04.435Z,96184.50
2023-04-18T09:24:23.972Z,96179.47
2023-04-18T09:25:42.705Z,96180.63
2023-04-18T09:26:47.825Z,96178.66
2023-04-18T09:27:49.426Z,96170.94
2023-04-18T09:28:53.969Z,96174.03
2023-04-18T09:29:57.799Z,96169.81
2023-04-18T09:31:15.301Z,96167.47
2023-04-18T09:32:25.004Z,96172.91
2023-04-18T09:33:34.338Z,96172.47
2023-04-18T09:34:42.568Z,96167.47
2023-04-18T09:35:44.188Z,96169.75
2023-04-18T09:36:45.788Z,96166.72
2023-04-18T09:37:51.186Z,96165.91
2023-04-18T09:38:56.319Z,96162.03
2023-04-18T09:39:58.795Z,96162.81
2023-04-18T09:41:15.681Z,96159.69
2023-04-18T09:42:18.423Z,96164.28
2023-04-18T09:43:20.822Z,96165.78
2023-04-18T09:44:22.416Z,96158.78
2023-04-18T09:45:25.403Z,96156.44
2023-04-18T09:46:27.812Z,96158.00
2023-04-18T09:47:30.780Z,96159.91
2023-04-18T09:48:32.388Z,96161.81
2023-04-18T09:49:33.966Z,96161.78
2023-04-18T09:50:36.494Z,96150.53
2023-04-18T09:51:40.359Z,96153.34
2023-04-18T09:52:43.332Z,96157.25
2023-04-18T09:53:47.437Z,96152.22
2023-04-18T09:54:55.097Z,96154.94
2023-04-18T09:55:57.957Z,96155.69
2023-04-18T09:57:02.857Z,96152.56
2023-04-18T09:58:05.939Z,96146.63
2023-04-18T09:59:09.363Z,96149.28
2023-04-18T10:00:20.487Z,96150.75
2023-04-18T10:01:23.217Z,96150.72
2023-04-18T10:02:28.887Z,96151.47
2023-04-18T10:03:39.206Z,96150.31
2023-04-18T10:04:41.783Z,96151.50
2023-04-18T10:05:44.385Z,96151.56
2023-04-18T10:06:46.955Z,96148.88
2023-04-18T10:07:50.141Z,96149.72
2023-04-18T10:08:52.602Z,96151.75
2023-04-18T10:09:54.160Z,96147.13
2023-04-18T10:10:58.625Z,96153.31
2023-04-18T10:12:02.632Z,96151.06
2023-04-18T10:13:06.196Z,96157.97
2023-04-18T10:14:11.867Z,96144.19
2023-04-18T10:15:15.722Z,96147.66
2023-04-18T10:16:18.147Z,96148.44
2023-04-18T10:17:20.361Z,96146.56
2023-04-18T10:18:25.317Z,96146.16
2023-04-18T10:19:29.535Z,96147.72
2023-04-18T10:20:32.931Z,96140.41
2023-04-18T10:21:34.496Z,96145.78
2023-04-18T10:22:36.589Z,96145.00
2023-04-18T10:23:39.797Z,96144.63
2023-04-18T10:24:56.245Z,96150.41
2023-04-18T10:25:58.731Z,96144.22
2023-04-18T10:27:00.285Z,96141.53
2023-04-18T10:28:03.279Z,96147.31
2023-04-18T10:29:04.862Z,96151.22
2023-04-18T10:30:08.978Z,96148.09
2023-04-18T10:31:10.818Z,96150.00
2023-04-18T10:32:12.436Z,96144.97
2023-04-18T10:33:30.293Z,96144.22
2023-04-18T10:34:33.242Z,96140.34
2023-04-18T10:35:36.042Z,96144.97
2023-04-18T10:36:57.590Z,96149.25
2023-04-18T10:37:59.620Z,96138.81
2023-04-18T10:39:19.923Z,96143.47
2023-04-18T10:40:34.765Z,96142.69
2023-04-18T10:41:49.416Z,96139.19
2023-04-18T10:42:54.226Z,96138.44
2023-04-18T10:44:12.308Z,96148.84
2023-04-18T10:45:24.408Z,96144.13
2023-04-18T10:46:32.627Z,96141.78
2023-04-18T10:47:34.621Z,96142.47
2023-04-18T10:48:39.178Z,96143.22
2023-04-18T10:49:53.722Z,96145.53
2023-04-18T10:51:17.688Z,96149.34
2023-04-18T10:52:19.303Z,96143.97
2023-04-18T10:53:20.896Z,96149.78
2023-04-18T10:54:25.492Z,96150.19
2023-04-18T10:55:29.442Z,96139.38
2023-04-18T10:56:31.019Z,96143.59
2023-04-18T10:58:02.149Z,96143.97
2023-04-18T10:59:03.819Z,96139.34
2023-04-18T11:00:09.366Z,96137.78
2023-04-18T11:01:14.533Z,96143.13
2023-04-18T11:02:29.634Z,96139.25
2023-04-18T11:03:34.010Z,96139.25
2023-04-18T11:04:35.959Z,96136.94
2023-04-18T11:05:37.606Z,96133.88
2023-04-18T11:06:55.949Z,96134.31
2023-04-18T11:07:57.610Z,96135.13
2023-04-18T11:09:12.185Z,96132.44
2023-04-18T11:10:17.457Z,96129.72
2023-04-18T11:11:19.026Z,96129.34
2023-04-18T11:12:20.920Z,96130.91
2023-04-18T11:13:22.531Z,96133.97
2023-04-18T11:14:24.193Z,96130.47
2023-04-18T11:15:26.286Z,96133.16
2023-04-18T11:16:30.374Z,96131.28
2023-04-18T11:17:33.068Z,96129.75
2023-04-18T11:18:41.957Z,96135.59
2023-04-18T11:19:43.539Z,96131.66
2023-04-18T11:20:50.020Z,96135.44
2023-04-18T11:21:52.316Z,96134.25
2023-04-18T11:22:56.951Z,96129.22
2023-04-18T11:23:58.774Z,96128.84
2023-04-18T11:25:01.851Z,96132.69
2023-04-18T11:26:03.592Z,96133.06
2023-04-18T11:27:05.485Z,96146.19
2023-04-18T11:28:07.052Z,96127.69
2023-04-18T11:29:08.611Z,96129.25
2023-04-18T11:30:11.324Z,96128.53
2023-04-18T11:31:16.200Z,96135.47
2023-04-18T11:32:17.796Z,96128.53
2023-04-18T11:33:19.372Z,96127.75
2023-04-18T11:34:21.100Z,96128.91
2023-04-18T11:35:22.857Z,96131.22
2023-04-18T11:36:24.548Z,96136.19
2023-04-18T11:37:26.082Z,96130.78
2023-04-18T11:38:30.298Z,96142.34
2023-04-18T11:39:36.079Z,96132.28
2023-04-18T11:40:38.009Z,96140.25
2023-04-18T11:41:41.473Z,96138.94
2023-04-18T11:42:43.053Z,96141.91
2023-04-18T11:43:45.966Z,96131.72
2023-04-18T11:44:49.194Z,96138.59
2023-04-18T11:45:55.745Z,96137.78
2023-04-18T11:46:57.328Z,96150.72
2023-04-18T11:48:00.860Z,96148.69
2023-04-18T11:49:02.555Z,96140.91
2023-04-18T11:50:06.788Z,96144.28
2023-04-18T11:51:34.090Z,96145.06
2023-04-18T11:52:36.515Z,96146.94
2023-04-18T11:53:39.558Z,96141.38
2023-04-18T11:54:44.964Z,96144.03
2023-04-18T11:55:56.481Z,96144.41
2023-04-18T11:56:58.007Z,96133.97
2023-04-18T11:58:01.489Z,96132.09
2023-04-18T11:59:09.598Z,96133.25
2023-04-18T12:00:12.690Z,96136.31
2023-04-18T12:01:18.195Z,96133.28
2023-04-18T12:02:21.909Z,96136.78
2023-04-18T12:03:24.655Z,96129.09
2023-04-18T12:04:26.867Z,96128.75
2023-04-18T12:05:39.166Z,96133.38
2023-04-18T12:06:51.837Z,96132.69
2023-04-18T12:07:54.002Z,96128.91
2023-04-18T12:09:00.152Z,96131.31
2023-04-18T12:10:02.762Z,96127.59
2023-04-18T12:11:04.401Z,96121.56
2023-04-18T12:12:06.752Z,96123.19
2023-04-18T12:13:08.889Z,96121.47
2023-04-18T12:14:21.658Z,96120.78
2023-04-18T12:15:27.097Z,96121.97
2023-04-18T12:16:30.407Z,96121.63
2023-04-18T12:17:32.392Z,96117.44
2023-04-18T12:18:34.179Z,96125.19
2023-04-18T12:19:36.255Z,96117.50
2023-04-18T12:20:39.848Z,96125.97